Time;durP1;ratioP1;P1;durP2;ratioP2;P2;SDS_P1;SDS_P2;PMS_P1;PMS_P2;Temp;Humidity;BMP_temperature;BMP_pressure;BME280_temperature;BME280_humidity;BME280_pressure;Samples;Min_cycle;Max_cycle;Signal;HPM_P1;HPM_P2
2022/11/02 00:00:12;;;;;;;8.60;2.50;;;;;;;;;;5033282;28;20100;-81
2022/11/02 00:02:38;;;;;;;7.90;2.50;;;;;;;;;;5032867;28;20404;-81
2022/11/02 00:05:04;;;;;;;5.38;2.28;;;;;;;;;;5032950;28;20125;-81
2022/11/02 00:07:30;;;;;;;6.65;2.30;;;;;;;;;;5032078;28;20057;-81
2022/11/02 00:09:56;;;;;;;9.60;3.00;;;;;;;;;;5032946;28;20459;-81
2022/11/02 00:12:22;;;;;;;10.75;2.60;;;;;;;;;;5035411;28;20374;-81
2022/11/02 00:14:48;;;;;;;7.18;2.58;;;;;;;;;;5037046;28;20042;-81
2022/11/02 00:17:14;;;;;;;5.05;2.50;;;;;;;;;;5035340;28;20403;-81
2022/11/02 00:19:41;;;;;;;7.68;2.47;;;;;;;;;;5029634;28;20489;-81
2022/11/02 00:22:07;;;;;;;12.45;3.00;;;;;;;;;;5043176;28;20374;-80
2022/11/02 00:24:33;;;;;;;7.43;2.53;;;;;;;;;;5044481;28;20041;-81
2022/11/02 00:26:59;;;;;;;8.23;2.60;;;;;;;;;;5038425;28;20073;-81
2022/11/02 00:29:25;;;;;;;10.73;2.42;;;;;;;;;;5037645;28;20042;-81
2022/11/02 00:31:51;;;;;;;7.10;2.40;;;;;;;;;;5036517;28;20041;-79
2022/11/02 00:34:17;;;;;;;9.27;2.92;;;;;;;;;;5028599;28;20053;-78
2022/11/02 00:36:44;;;;;;;6.38;2.58;;;;;;;;;;5021316;28;20045;-77
2022/11/02 00:39:10;;;;;;;7.78;2.60;;;;;;;;;;5036199;28;20037;-78
2022/11/02 00:41:36;;;;;;;9.23;2.92;;;;;;;;;;5036155;28;20373;-78
2022/11/02 00:44:02;;;;;;;6.43;2.75;;;;;;;;;;5036358;28;20475;-78
2022/11/02 00:46:28;;;;;;;8.13;2.85;;;;;;;;;;5035967;28;20052;-78
2022/11/02 00:48:54;;;;;;;6.93;2.65;;;;;;;;;;5036269;28;20554;-79
2022/11/02 00:51:20;;;;;;;6.07;2.47;;;;;;;;;;5036264;28;20073;-79
2022/11/02 00:53:46;;;;;;;5.50;2.40;;;;;;;;;;5034362;28;20077;-80
2022/11/02 00:56:12;;;;;;;7.65;2.60;;;;;;;;;;5036111;28;20049;-80
2022/11/02 00:58:38;;;;;;;8.38;2.55;;;;;;;;;;5035865;28;20045;-80
2022/11/02 01:01:05;;;;;;;7.97;2.55;;;;;;;;;;5035768;28;20083;-80
2022/11/02 01:03:31;;;;;;;5.82;2.40;;;;;;;;;;5034103;28;20051;-80
2022/11/02 01:05:57;;;;;;;6.68;2.90;;;;;;;;;;5035860;28;20128;-81
2022/11/02 01:08:23;;;;;;;6.38;2.70;;;;;;;;;;5018066;28;20128;-81
2022/11/02 01:10:49;;;;;;;7.05;2.20;;;;;;;;;;5035660;28;20490;-81
2022/11/02 01:13:16;;;;;;;7.63;2.40;;;;;;;;;;5035682;28;20080;-81
2022/11/02 01:15:42;;;;;;;10.00;2.25;;;;;;;;;;5035024;28;20103;-80
2022/11/02 01:18:08;;;;;;;6.47;2.53;;;;;;;;;;5035443;28;20045;-81
2022/11/02 01:20:34;;;;;;;9.90;2.78;;;;;;;;;;5035452;28;20045;-81
2022/11/02 01:23:00;;;;;;;5.30;2.35;;;;;;;;;;5034619;28;20041;-81
2022/11/02 01:25:26;;;;;;;7.03;2.53;;;;;;;;;;5035433;28;20072;-81
2022/11/02 01:27:52;;;;;;;5.90;2.15;;;;;;;;;;5035825;28;20046;-81
2022/11/02 01:30:18;;;;;;;6.93;2.65;;;;;;;;;;5035580;28;20052;-80
2022/11/02 01:32:44;;;;;;;4.95;1.80;;;;;;;;;;5035550;28;20041;-81
2022/11/02 01:35:10;;;;;;;3.80;1.80;;;;;;;;;;5035406;28;20048;-81
2022/11/02 01:37:37;;;;;;;4.30;1.92;;;;;;;;;;5034822;28;20033;-81
2022/11/02 01:40:03;;;;;;;7.10;2.33;;;;;;;;;;5035546;28;20057;-81
2022/11/02 01:42:29;;;;;;;6.30;2.30;;;;;;;;;;5035609;28;20086;-81
2022/11/02 01:44:55;;;;;;;5.80;2.20;;;;;;;;;;5035649;28;20124;-80
2022/11/02 01:47:37;;;;;;;5.68;2.25;;;;;;;;;;5034894;28;20175;-81
2022/11/02 01:50:09;;;;;;;7.40;2.17;;;;;;;;;;5034092;28;20042;-81
2022/11/02 01:52:36;;;;;;;5.72;2.30;;;;;;;;;;5034732;28;20038;-80
2022/11/02 01:55:19;;;;;;;3.95;1.60;;;;;;;;;;5034573;28;20136;-81
2022/11/02 01:57:47;;;;;;;5.05;1.90;;;;;;;;;;5033550;28;20045;-80
2022/11/02 02:00:14;;;;;;;5.90;1.77;;;;;;;;;;5034951;28;20050;-81
2022/11/02 02:03:03;;;;;;;6.72;2.20;;;;;;;;;;5034926;28;20041;-81
2022/11/02 02:05:30;;;;;;;5.63;2.05;;;;;;;;;;5017007;28;20089;-81
2022/11/02 02:07:56;;;;;;;9.32;2.13;;;;;;;;;;5038881;28;20041;-81
2022/11/02 02:10:22;;;;;;;4.53;1.90;;;;;;;;;;5033146;28;20049;-81
2022/11/02 02:12:49;;;;;;;6.80;2.10;;;;;;;;;;5032874;28;20098;-81
2022/11/02 02:15:15;;;;;;;6.72;2.60;;;;;;;;;;5034443;28;20053;-81
2022/11/02 02:17:41;;;;;;;4.50;1.90;;;;;;;;;;5033630;28;20376;-81
2022/11/02 02:20:20;;;;;;;6.95;2.00;;;;;;;;;;5034740;28;20460;-81
2022/11/02 02:23:12;;;;;;;5.07;1.70;;;;;;;;;;5034235;28;20046;-81
2022/11/02 02:25:57;;;;;;;4.38;2.00;;;;;;;;;;5032628;28;20053;-81
2022/11/02 02:28:32;;;;;;;5.20;1.60;;;;;;;;;;5034281;28;20045;-81
2022/11/02 02:31:00;;;;;;;4.90;1.73;;;;;;;;;;5034303;28;20042;-81
2022/11/02 02:33:30;;;;;;;4.32;1.63;;;;;;;;;;5029288;28;20092;-80
2022/11/02 02:36:16;;;;;;;3.30;1.60;;;;;;;;;;5017027;28;20096;-81
2022/11/02 02:38:47;;;;;;;3.00;1.75;;;;;;;;;;5033646;28;20061;-81
2022/11/02 02:41:21;;;;;;;6.60;2.00;;;;;;;;;;5033927;28;20076;-81
2022/11/02 02:43:50;;;;;;;3.03;1.90;;;;;;;;;;5033941;28;20140;-81
2022/11/02 02:46:19;;;;;;;6.60;2.58;;;;;;;;;;5035187;28;20051;-81
2022/11/02 02:48:46;;;;;;;4.53;2.00;;;;;;;;;;5035216;28;20044;-81
2022/11/02 02:51:16;;;;;;;4.68;2.30;;;;;;;;;;5036365;28;20532;-80
2022/11/02 02:53:44;;;;;;;5.05;2.40;;;;;;;;;;5040836;28;20536;-80
2022/11/02 02:56:11;;;;;;;7.05;2.60;;;;;;;;;;5042404;28;20041;-81
2022/11/02 02:59:03;;;;;;;6.40;2.40;;;;;;;;;;5034894;28;20600;-81
2022/11/02 03:01:30;;;;;;;6.13;2.05;;;;;;;;;;5025347;28;20049;-81
2022/11/02 03:03:56;;;;;;;3.97;2.10;;;;;;;;;;5033739;28;20480;-81
2022/11/02 03:06:24;;;;;;;6.93;2.65;;;;;;;;;;5033367;28;20586;-80
2022/11/02 03:09:02;;;;;;;4.60;1.88;;;;;;;;;;5033605;28;20073;-81
2022/11/02 03:11:28;;;;;;;5.30;2.25;;;;;;;;;;5034107;28;20108;-80
2022/11/02 03:14:13;;;;;;;6.75;2.10;;;;;;;;;;5033526;28;20053;-81
2022/11/02 03:16:46;;;;;;;4.75;1.58;;;;;;;;;;5033975;28;20042;-81
2022/11/02 03:19:38;;;;;;;4.00;1.52;;;;;;;;;;5033902;28;20042;-81
2022/11/02 03:22:06;;;;;;;12.50;2.10;;;;;;;;;;5033072;28;20081;-81
2022/11/02 03:24:34;;;;;;;6.90;1.60;;;;;;;;;;5034185;28;20056;-80
2022/11/02 03:27:09;;;;;;;3.05;1.60;;;;;;;;;;5033534;28;20048;-80
2022/11/02 03:29:54;;;;;;;7.07;1.80;;;;;;;;;;5017361;28;20084;-81
2022/11/02 03:32:27;;;;;;;5.90;1.88;;;;;;;;;;5014172;28;20088;-81
2022/11/02 03:34:57;;;;;;;5.05;1.63;;;;;;;;;;5013967;28;20050;-81
2022/11/02 03:37:26;;;;;;;4.80;1.58;;;;;;;;;;5023744;28;20044;-80
2022/11/02 03:40:05;;;;;;;3.05;1.77;;;;;;;;;;5033593;28;20043;-80
2022/11/02 03:42:32;;;;;;;4.28;2.00;;;;;;;;;;5033226;28;20045;-80
2022/11/02 03:45:04;;;;;;;4.03;1.63;;;;;;;;;;5017921;28;20551;-80
2022/11/02 03:47:32;;;;;;;3.83;1.45;;;;;;;;;;5020923;28;20172;-81
2022/11/02 03:50:00;;;;;;;7.32;1.88;;;;;;;;;;5026149;28;20046;-80
2022/11/02 03:52:29;;;;;;;7.75;2.53;;;;;;;;;;5030971;28;20081;-80
2022/11/02 03:54:58;;;;;;;8.05;1.92;;;;;;;;;;5037371;28;20034;-81
2022/11/02 03:57:28;;;;;;;5.45;1.88;;;;;;;;;;5036106;28;20400;-81
2022/11/02 04:00:05;;;;;;;5.55;1.80;;;;;;;;;;5037064;28;20462;-80
2022/11/02 04:02:34;;;;;;;9.10;2.13;;;;;;;;;;5035861;28;20412;-81
2022/11/02 04:05:00;;;;;;;10.45;2.25;;;;;;;;;;5036826;28;20049;-77
2022/11/02 04:08:19;;;;;;;10.77;2.20;;;;;;;;;;5035212;28;20045;-77
2022/11/02 04:10:15;;;;;;;10.75;2.40;;;;;;;;;;5036742;28;20042;-77
2022/11/02 04:15:26;;;;;;;8.38;2.60;;;;;;;;;;5036843;28;20060;-77
2022/11/02 04:20:37;;;;;;;11.25;2.70;;;;;;;;;;5015353;28;20473;-78
2022/11/02 04:25:52;;;;;;;8.50;2.20;;;;;;;;;;5036547;28;20049;-78
2022/11/02 04:28:18;;;;;;;9.60;2.50;;;;;;;;;;5036548;28;20055;-79
2022/11/02 04:30:44;;;;;;;8.23;2.47;;;;;;;;;;5036446;28;20128;-79
2022/11/02 04:35:55;;;;;;;9.35;2.30;;;;;;;;;;5035981;28;20049;-77
2022/11/02 04:38:39;;;;;;;9.77;2.92;;;;;;;;;;5035467;28;20481;-76
2022/11/02 04:43:54;;;;;;;7.35;2.60;;;;;;;;;;5036528;28;20049;-76
2022/11/02 04:46:20;;;;;;;9.02;2.00;;;;;;;;;;5035287;28;20045;-76
2022/11/02 04:48:46;;;;;;;9.25;2.70;;;;;;;;;;5036218;28;20045;-76
2022/11/02 04:51:12;;;;;;;8.15;2.67;;;;;;;;;;5036384;28;20563;-78
2022/11/02 04:53:38;;;;;;;10.38;2.47;;;;;;;;;;5035504;28;20124;-76
2022/11/02 04:56:05;;;;;;;7.85;2.42;;;;;;;;;;5036109;28;20077;-76
2022/11/02 04:58:31;;;;;;;8.63;2.33;;;;;;;;;;5035125;28;20045;-76
2022/11/02 05:00:57;;;;;;;8.13;2.58;;;;;;;;;;5036198;28;20477;-77
2022/11/02 05:03:23;;;;;;;12.98;2.58;;;;;;;;;;5036088;28;20067;-77
2022/11/02 05:05:54;;;;;;;9.13;2.53;;;;;;;;;;5035639;28;20056;-77
2022/11/02 05:08:20;;;;;;;8.00;2.28;;;;;;;;;;5035930;28;20045;-78
2022/11/02 05:10:46;;;;;;;10.85;2.63;;;;;;;;;;5034410;28;20488;-77
2022/11/02 05:13:12;;;;;;;8.80;2.58;;;;;;;;;;5035752;28;20081;-79
2022/11/02 05:15:38;;;;;;;5.25;2.10;;;;;;;;;;5035552;28;20523;-78
2022/11/02 05:18:04;;;;;;;9.50;2.60;;;;;;;;;;5020035;28;20057;-76
2022/11/02 05:20:30;;;;;;;8.98;2.42;;;;;;;;;;5033886;28;20041;-76
2022/11/02 05:22:56;;;;;;;6.38;2.55;;;;;;;;;;5034998;28;20044;-77
2022/11/02 05:25:22;;;;;;;10.30;2.78;;;;;;;;;;5035439;28;20044;-77
2022/11/02 05:27:48;;;;;;;9.48;2.88;;;;;;;;;;5035389;28;20041;-77
2022/11/02 05:30:14;;;;;;;9.20;2.60;;;;;;;;;;5035565;28;20396;-77
2022/11/02 05:32:40;;;;;;;9.93;2.60;;;;;;;;;;5035085;28;20057;-78
2022/11/02 05:35:07;;;;;;;7.57;2.28;;;;;;;;;;5035341;28;20444;-78
2022/11/02 05:37:33;;;;;;;13.18;2.83;;;;;;;;;;5035042;28;20045;-78
2022/11/02 05:39:59;;;;;;;7.57;2.60;;;;;;;;;;5035524;28;20038;-79
2022/11/02 05:42:25;;;;;;;8.43;2.65;;;;;;;;;;5035720;28;20045;-79
2022/11/02 05:44:51;;;;;;;11.30;2.80;;;;;;;;;;5034238;28;20045;-79
2022/11/02 05:47:17;;;;;;;11.32;2.70;;;;;;;;;;5044003;28;20052;-79
2022/11/02 05:49:43;;;;;;;11.48;2.63;;;;;;;;;;5053659;28;20609;-79
2022/11/02 05:52:09;;;;;;;8.95;2.20;;;;;;;;;;5034904;28;20050;-80
2022/11/02 05:54:35;;;;;;;9.38;2.30;;;;;;;;;;5018045;28;20037;-80
2022/11/02 05:57:01;;;;;;;10.35;2.95;;;;;;;;;;5035554;28;20068;-80
2022/11/02 05:59:27;;;;;;;10.70;2.63;;;;;;;;;;5035445;28;20095;-80
2022/11/02 06:01:53;;;;;;;8.90;3.25;;;;;;;;;;5035052;28;20096;-79
2022/11/02 06:04:19;;;;;;;12.95;3.65;;;;;;;;;;5034829;28;20041;-80
2022/11/02 06:06:45;;;;;;;7.97;2.92;;;;;;;;;;5034428;28;20381;-80
2022/11/02 06:09:11;;;;;;;13.38;2.85;;;;;;;;;;5017332;28;20408;-80
2022/11/02 06:11:37;;;;;;;11.73;3.17;;;;;;;;;;5034537;28;20505;-79
2022/11/02 06:14:03;;;;;;;7.18;2.42;;;;;;;;;;5034352;28;20454;-79
2022/11/02 06:16:30;;;;;;;9.73;2.85;;;;;;;;;;5034424;28;20049;-78
2022/11/02 06:18:56;;;;;;;10.93;2.90;;;;;;;;;;5034715;28;20061;-79
2022/11/02 06:21:22;;;;;;;13.63;3.00;;;;;;;;;;5034343;28;20049;-79
2022/11/02 06:23:48;;;;;;;10.80;2.90;;;;;;;;;;5033846;28;20535;-79
2022/11/02 06:26:15;;;;;;;10.13;2.85;;;;;;;;;;5034596;28;20048;-80
2022/11/02 06:28:41;;;;;;;11.27;2.88;;;;;;;;;;5034096;28;20389;-79
2022/11/02 06:31:07;;;;;;;13.20;3.40;;;;;;;;;;5033966;28;20060;-80
2022/11/02 06:33:33;;;;;;;11.90;2.70;;;;;;;;;;5034551;28;20054;-81
2022/11/02 06:35:59;;;;;;;8.30;2.83;;;;;;;;;;5034290;28;20053;-81
2022/11/02 06:38:25;;;;;;;8.63;2.83;;;;;;;;;;5033714;28;20501;-81
2022/11/02 06:40:59;;;;;;;8.43;2.53;;;;;;;;;;5034237;28;20418;-81
2022/11/02 06:43:25;;;;;;;8.07;2.15;;;;;;;;;;5034134;28;20042;-81
2022/11/02 06:45:54;;;;;;;5.43;1.67;;;;;;;;;;5032935;28;20551;-80
2022/11/02 06:48:20;;;;;;;5.03;1.90;;;;;;;;;;5032383;28;20053;-81
2022/11/02 06:50:46;;;;;;;6.72;2.13;;;;;;;;;;5031781;28;20176;-81
2022/11/02 06:53:12;;;;;;;5.38;1.85;;;;;;;;;;5034173;28;20111;-80
2022/11/02 06:55:38;;;;;;;6.38;1.88;;;;;;;;;;5032526;28;20079;-81
2022/11/02 06:58:05;;;;;;;7.40;2.00;;;;;;;;;;5032508;28;20480;-81
2022/11/02 07:00:31;;;;;;;6.68;2.30;;;;;;;;;;5033799;28;20095;-80
2022/11/02 07:03:04;;;;;;;7.88;3.03;;;;;;;;;;5033876;28;20042;-81
2022/11/02 07:05:30;;;;;;;10.00;2.42;;;;;;;;;;5032614;28;20048;-81
2022/11/02 07:07:56;;;;;;;9.48;3.03;;;;;;;;;;5038705;28;20531;-81
2022/11/02 07:10:23;;;;;;;10.57;3.50;;;;;;;;;;5039410;28;20048;-80
2022/11/02 07:12:53;;;;;;;8.18;2.58;;;;;;;;;;5038960;28;20107;-81
2022/11/02 07:15:19;;;;;;;7.68;2.33;;;;;;;;;;5034087;28;20120;-81
2022/11/02 07:17:46;;;;;;;10.15;2.67;;;;;;;;;;5033874;28;20049;-81
2022/11/02 07:20:12;;;;;;;6.95;2.45;;;;;;;;;;5033241;28;20045;-81
2022/11/02 07:22:38;;;;;;;8.57;2.53;;;;;;;;;;5033547;28;20129;-81
2022/11/02 07:25:04;;;;;;;9.95;2.53;;;;;;;;;;5033593;28;20140;-81
2022/11/02 07:27:30;;;;;;;9.15;2.60;;;;;;;;;;5033180;28;20065;-81
2022/11/02 07:29:57;;;;;;;8.32;2.65;;;;;;;;;;5013988;28;20092;-81
2022/11/02 07:32:23;;;;;;;7.70;2.58;;;;;;;;;;5013658;28;20060;-81
2022/11/02 07:34:49;;;;;;;12.70;2.80;;;;;;;;;;5013776;28;20069;-81
2022/11/02 07:37:15;;;;;;;7.50;2.50;;;;;;;;;;4998728;28;20052;-81
2022/11/02 07:39:41;;;;;;;13.00;3.53;;;;;;;;;;5018205;28;20091;-81
2022/11/02 07:42:07;;;;;;;15.52;3.20;;;;;;;;;;5033404;28;20096;-82
2022/11/02 07:44:33;;;;;;;9.43;3.00;;;;;;;;;;5033682;28;20128;-81
2022/11/02 07:47:00;;;;;;;7.50;2.58;;;;;;;;;;5033083;28;20488;-82
2022/11/02 07:49:26;;;;;;;11.13;2.42;;;;;;;;;;5033937;28;20090;-82
2022/11/02 07:51:52;;;;;;;5.63;1.92;;;;;;;;;;5033569;28;20045;-81
2022/11/02 07:54:18;;;;;;;5.18;1.52;;;;;;;;;;5031696;28;20045;-81
2022/11/02 07:56:44;;;;;;;4.10;1.60;;;;;;;;;;5013829;28;20096;-81
2022/11/02 07:59:11;;;;;;;5.13;1.58;;;;;;;;;;5013420;28;20053;-80
2022/11/02 08:01:37;;;;;;;6.85;2.05;;;;;;;;;;5013308;28;20229;-80
2022/11/02 08:04:04;;;;;;;4.22;1.83;;;;;;;;;;5019619;28;20045;-79
2022/11/02 08:06:30;;;;;;;7.90;1.90;;;;;;;;;;5033163;28;20512;-79
2022/11/02 08:08:56;;;;;;;5.85;1.63;;;;;;;;;;5025152;28;20037;-80
2022/11/02 08:11:22;;;;;;;5.72;2.00;;;;;;;;;;5031484;28;20074;-79
2022/11/02 08:13:48;;;;;;;5.07;2.13;;;;;;;;;;5032965;28;20049;-77
2022/11/02 08:16:14;;;;;;;11.27;2.67;;;;;;;;;;5033413;28;20057;-78
2022/11/02 08:18:40;;;;;;;6.38;2.53;;;;;;;;;;5033435;28;20133;-79
2022/11/02 08:21:07;;;;;;;8.75;2.20;;;;;;;;;;5032691;28;20121;-79
2022/11/02 08:23:33;;;;;;;14.48;3.17;;;;;;;;;;5032980;28;20053;-80
2022/11/02 08:25:59;;;;;;;10.82;2.80;;;;;;;;;;5032823;28;20049;-79
2022/11/02 08:28:30;;;;;;;13.80;2.83;;;;;;;;;;5033083;28;20084;-81
2022/11/02 08:30:57;;;;;;;11.48;3.13;;;;;;;;;;5030884;28;20100;-80
2022/11/02 08:33:23;;;;;;;13.95;2.80;;;;;;;;;;5046960;28;20409;-80
2022/11/02 08:35:49;;;;;;;12.15;2.53;;;;;;;;;;5036155;28;20041;-81
2022/11/02 08:38:15;;;;;;;10.70;3.42;;;;;;;;;;5036282;28;20414;-81
2022/11/02 08:40:41;;;;;;;9.70;2.50;;;;;;;;;;5036196;28;20049;-81
2022/11/02 08:43:12;;;;;;;9.60;2.53;;;;;;;;;;5035557;28;20048;-80
2022/11/02 08:45:39;;;;;;;11.68;2.33;;;;;;;;;;5025364;28;20120;-81
2022/11/02 08:48:05;;;;;;;10.90;2.72;;;;;;;;;;5035378;28;20492;-81
2022/11/02 08:50:31;;;;;;;9.13;2.40;;;;;;;;;;5035545;28;20463;-81
2022/11/02 08:52:57;;;;;;;10.45;2.75;;;;;;;;;;5035138;28;20516;-79
2022/11/02 08:55:23;;;;;;;9.48;2.97;;;;;;;;;;5035858;28;20087;-81
2022/11/02 08:57:54;;;;;;;10.55;3.00;;;;;;;;;;5034053;28;20072;-80
2022/11/02 09:00:21;;;;;;;12.35;2.42;;;;;;;;;;5033833;28;20401;-80
2022/11/02 09:03:03;;;;;;;7.82;2.35;;;;;;;;;;5035895;28;20041;-81
2022/11/02 09:05:30;;;;;;;8.40;2.35;;;;;;;;;;5035379;28;20053;-82
2022/11/02 09:07:59;;;;;;;11.73;2.92;;;;;;;;;;5035591;28;20045;-81
2022/11/02 09:10:26;;;;;;;8.00;2.33;;;;;;;;;;5036771;28;20053;-82
2022/11/02 09:12:53;;;;;;;8.85;2.35;;;;;;;;;;5035908;28;20141;-82
2022/11/02 09:15:19;;;;;;;11.10;2.85;;;;;;;;;;5048946;28;20056;-82
2022/11/02 09:17:48;;;;;;;9.82;2.75;;;;;;;;;;5055645;28;20044;-82
2022/11/02 09:20:16;;;;;;;12.43;3.55;;;;;;;;;;5044564;28;20125;-83
2022/11/02 09:22:42;;;;;;;11.88;2.67;;;;;;;;;;5035472;28;20041;-86
2022/11/02 09:25:08;;;;;;;11.13;2.80;;;;;;;;;;5035335;28;20385;-83
2022/11/02 09:27:34;;;;;;;8.80;2.70;;;;;;;;;;5035579;28;20045;-84
2022/11/02 09:30:02;;;;;;;13.65;3.63;;;;;;;;;;5034002;28;20151;-84
2022/11/02 09:32:32;;;;;;;11.73;2.75;;;;;;;;;;5035305;28;20050;-84
2022/11/02 09:34:58;;;;;;;10.50;3.20;;;;;;;;;;5035218;28;20516;-84
2022/11/02 09:37:24;;;;;;;8.50;2.53;;;;;;;;;;5035130;28;20060;-84
2022/11/02 09:39:50;;;;;;;9.77;2.75;;;;;;;;;;5034168;28;20046;-86
2022/11/02 09:42:24;;;;;;;9.93;2.53;;;;;;;;;;5035067;28;20060;-85
2022/11/02 09:44:57;;;;;;;8.00;2.75;;;;;;;;;;5034725;28;20522;-84
2022/11/02 09:47:24;;;;;;;9.82;2.75;;;;;;;;;;5035253;28;20049;-84
2022/11/02 09:49:50;;;;;;;9.98;2.70;;;;;;;;;;5018794;28;20067;-84
2022/11/02 09:52:24;;;;;;;12.88;4.18;;;;;;;;;;5015244;28;20497;-84
2022/11/02 09:54:51;;;;;;;12.25;2.70;;;;;;;;;;5029834;28;20500;-84
2022/11/02 09:57:27;;;;;;;15.05;3.60;;;;;;;;;;5035082;28;20041;-84
2022/11/02 09:59:53;;;;;;;8.55;2.90;;;;;;;;;;5035619;28;20095;-85
2022/11/02 10:02:28;;;;;;;10.25;2.65;;;;;;;;;;5036201;28;20401;-84
2022/11/02 10:05:00;;;;;;;15.18;3.58;;;;;;;;;;5035141;28;20050;-85
2022/11/02 10:07:35;;;;;;;11.23;2.95;;;;;;;;;;5035387;28;20583;-84
2022/11/02 10:10:04;;;;;;;11.93;2.90;;;;;;;;;;5034844;28;20049;-84
2022/11/02 10:12:44;;;;;;;10.68;3.03;;;;;;;;;;5034592;28;20412;-84
2022/11/02 10:15:18;;;;;;;11.40;2.85;;;;;;;;;;5034924;28;20045;-84
2022/11/02 10:17:46;;;;;;;11.00;2.33;;;;;;;;;;5033734;28;20056;-84
2022/11/02 10:20:32;;;;;;;7.72;2.67;;;;;;;;;;5035105;28;20111;-84
2022/11/02 10:23:02;;;;;;;8.65;2.70;;;;;;;;;;5034792;28;20497;-85
2022/11/02 10:25:28;;;;;;;8.05;2.20;;;;;;;;;;5034830;28;20045;-86
2022/11/02 10:28:02;;;;;;;9.55;2.42;;;;;;;;;;5035161;28;20063;-82
2022/11/02 10:30:29;;;;;;;8.57;2.50;;;;;;;;;;5036970;28;20060;-85
2022/11/02 10:32:56;;;;;;;7.03;2.45;;;;;;;;;;5039046;28;20503;-85
2022/11/02 10:35:40;;;;;;;12.23;3.63;;;;;;;;;;5041512;28;20041;-83
2022/11/02 10:38:26;;;;;;;6.63;2.20;;;;;;;;;;5025327;28;20460;-78
2022/11/02 10:41:21;;;;;;;6.88;2.30;;;;;;;;;;5030577;28;20041;-82
2022/11/02 10:43:47;;;;;;;12.18;2.80;;;;;;;;;;5034003;28;20128;-82
2022/11/02 10:46:16;;;;;;;10.15;2.55;;;;;;;;;;5034995;28;20500;-82
2022/11/02 10:48:45;;;;;;;11.55;2.50;;;;;;;;;;5033606;28;20492;-89
2022/11/02 10:51:13;;;;;;;12.10;2.70;;;;;;;;;;5014980;28;20050;-82
2022/11/02 10:53:43;;;;;;;6.78;2.40;;;;;;;;;;5014865;28;20042;-82
2022/11/02 10:56:15;;;;;;;9.90;2.60;;;;;;;;;;5021010;28;20400;-83
2022/11/02 10:58:49;;;;;;;10.25;2.38;;;;;;;;;;5014507;28;20166;-83
2022/11/02 11:01:15;;;;;;;9.23;3.00;;;;;;;;;;5014533;28;20104;-83
2022/11/02 11:04:01;;;;;;;9.73;2.80;;;;;;;;;;5018871;28;20432;-83
2022/11/02 11:06:37;;;;;;;6.53;2.47;;;;;;;;;;5034486;28;20045;-82
2022/11/02 11:09:06;;;;;;;10.05;2.35;;;;;;;;;;5033810;28;20072;-81
2022/11/02 11:11:38;;;;;;;9.20;2.55;;;;;;;;;;5033689;28;20057;-81
2022/11/02 11:14:15;;;;;;;8.57;2.55;;;;;;;;;;5028938;28;20233;-81
2022/11/02 11:16:44;;;;;;;8.65;3.17;;;;;;;;;;5013946;28;20390;-81
2022/11/02 11:19:22;;;;;;;9.68;2.60;;;;;;;;;;5014089;28;20053;-82
2022/11/02 11:21:49;;;;;;;8.85;2.65;;;;;;;;;;5029227;28;20494;-81
2022/11/02 11:24:23;;;;;;;6.50;2.40;;;;;;;;;;5033442;28;20504;-82
2022/11/02 11:27:03;;;;;;;7.78;2.33;;;;;;;;;;5032178;28;20048;-82
2022/11/02 11:29:31;;;;;;;7.40;2.60;;;;;;;;;;5033482;28;20042;-81
2022/11/02 11:31:57;;;;;;;8.43;2.33;;;;;;;;;;5033707;28;20046;-81
2022/11/02 11:34:25;;;;;;;8.77;2.85;;;;;;;;;;5033261;28;20045;-83
2022/11/02 11:36:51;;;;;;;7.18;2.30;;;;;;;;;;5033297;28;20052;-82
2022/11/02 11:39:20;;;;;;;8.68;2.65;;;;;;;;;;5033059;28;20571;-82
2022/11/02 11:41:46;;;;;;;10.25;2.45;;;;;;;;;;5032836;28;20107;-82
2022/11/02 11:44:14;;;;;;;7.75;2.60;;;;;;;;;;5033240;28;20129;-82
2022/11/02 11:46:45;;;;;;;6.25;2.42;;;;;;;;;;5033922;28;20038;-82
2022/11/02 11:49:20;;;;;;;10.00;2.80;;;;;;;;;;5033399;28;20045;-83
2022/11/02 11:51:49;;;;;;;8.68;2.58;;;;;;;;;;5013777;28;20042;-82
2022/11/02 11:54:21;;;;;;;9.95;2.45;;;;;;;;;;5016603;28;20088;-83
2022/11/02 11:56:47;;;;;;;8.02;2.47;;;;;;;;;;5022636;28;20042;-82
2022/11/02 11:59:21;;;;;;;10.30;2.15;;;;;;;;;;5033181;28;20096;-85
2022/11/02 12:01:47;;;;;;;8.77;2.05;;;;;;;;;;5033054;28;20041;-83
2022/11/02 12:04:13;;;;;;;7.10;2.30;;;;;;;;;;5031857;28;20046;-82
2022/11/02 12:06:49;;;;;;;6.82;1.75;;;;;;;;;;5020614;28;20045;-83
2022/11/02 12:09:15;;;;;;;;;;;;;;;;;;5037470;28;20045;-83
2022/11/02 12:11:44;;;;;;;5.93;3.13;;;;;;;;;;5036654;28;19967;-84
2022/11/02 12:14:13;;;;;;;8.27;2.50;;;;;;;;;;5028004;28;20034;-83
2022/11/02 12:16:55;;;;;;;8.20;2.50;;;;;;;;;;5017154;28;20046;-84
2022/11/02 12:19:25;;;;;;;8.18;2.38;;;;;;;;;;5017405;28;20141;-83
2022/11/02 12:21:59;;;;;;;6.95;1.92;;;;;;;;;;5034660;28;20041;-83
2022/11/02 12:24:37;;;;;;;8.02;2.55;;;;;;;;;;5031574;28;20046;-84
2022/11/02 12:27:22;;;;;;;8.93;2.28;;;;;;;;;;5031715;28;20117;-83
2022/11/02 12:29:48;;;;;;;10.10;2.38;;;;;;;;;;5015565;28;20141;-84
2022/11/02 12:32:17;;;;;;;8.15;2.10;;;;;;;;;;5017826;28;20132;-82
2022/11/02 12:35:10;;;;;;;10.25;2.60;;;;;;;;;;5026650;28;20512;-84
2022/11/02 12:37:54;;;;;;;8.15;2.25;;;;;;;;;;5021174;28;20063;-83
2022/11/02 12:40:32;;;;;;;11.90;2.42;;;;;;;;;;5036227;28;20037;-84
2022/11/02 12:43:11;;;;;;;8.50;2.28;;;;;;;;;;5036102;28;20511;-84
2022/11/02 12:45:37;;;;;;;6.45;2.20;;;;;;;;;;5051808;28;20049;-83
2022/11/02 12:48:04;;;;;;;7.60;2.50;;;;;;;;;;5036551;28;20046;-83
2022/11/02 12:50:48;;;;;;;8.02;2.53;;;;;;;;;;5035609;28;20072;-83
2022/11/02 12:53:21;;;;;;;11.25;2.70;;;;;;;;;;5036779;28;20049;-84
2022/11/02 12:55:50;;;;;;;8.73;2.35;;;;;;;;;;5016041;28;20050;-83
2022/11/02 12:58:18;;;;;;;12.93;2.42;;;;;;;;;;5016279;28;20048;-84
2022/11/02 13:00:44;;;;;;;8.30;2.30;;;;;;;;;;5016262;28;20120;-83
2022/11/02 13:03:22;;;;;;;7.03;2.40;;;;;;;;;;5016453;28;20172;-83
2022/11/02 13:05:52;;;;;;;11.23;2.78;;;;;;;;;;5023048;28;20110;-83
2022/11/02 13:08:24;;;;;;;15.30;2.95;;;;;;;;;;5035702;28;20046;-83
2022/11/02 13:10:53;;;;;;;11.05;2.38;;;;;;;;;;5035880;28;20045;-83
2022/11/02 13:13:31;;;;;;;12.65;2.38;;;;;;;;;;5035310;28;20060;-84
2022/11/02 13:15:59;;;;;;;9.88;2.35;;;;;;;;;;5035802;28;20496;-83
2022/11/02 13:18:28;;;;;;;8.98;2.20;;;;;;;;;;5035121;28;20046;-87
2022/11/02 13:20:57;;;;;;;6.75;2.05;;;;;;;;;;5035690;28;20071;-86
2022/11/02 13:23:35;;;;;;;6.35;2.35;;;;;;;;;;5035536;28;20041;-81
2022/11/02 13:26:08;;;;;;;9.90;2.28;;;;;;;;;;5035497;28;20038;-82
2022/11/02 13:28:59;;;;;;;12.43;2.65;;;;;;;;;;5035498;28;20095;-82
2022/11/02 13:31:32;;;;;;;9.45;2.88;;;;;;;;;;5035171;28;20104;-82
2022/11/02 13:33:59;;;;;;;9.85;2.60;;;;;;;;;;5027629;28;20038;-81
2022/11/02 13:36:26;;;;;;;10.30;3.00;;;;;;;;;;5025556;28;20049;-81
2022/11/02 13:38:56;;;;;;;9.52;2.80;;;;;;;;;;5035207;28;20041;-81
2022/11/02 13:41:31;;;;;;;6.68;2.10;;;;;;;;;;5016456;28;20096;-82
2022/11/02 13:44:03;;;;;;;11.00;2.50;;;;;;;;;;5026938;28;20037;-82
2022/11/02 13:46:48;;;;;;;9.77;2.40;;;;;;;;;;5034636;28;20405;-82
2022/11/02 13:49:17;;;;;;;7.22;2.30;;;;;;;;;;5034553;28;20484;-82
2022/11/02 13:51:43;;;;;;;9.05;2.50;;;;;;;;;;5035229;28;20053;-82
2022/11/02 13:54:15;;;;;;;7.90;2.25;;;;;;;;;;5035023;28;20042;-82
2022/11/02 13:56:42;;;;;;;8.23;2.85;;;;;;;;;;5037286;28;20068;-82
2022/11/02 13:59:09;;;;;;;8.23;2.20;;;;;;;;;;5034840;28;20049;-82
2022/11/02 14:01:38;;;;;;;8.25;2.40;;;;;;;;;;5035295;28;20050;-82
2022/11/02 14:04:06;;;;;;;6.22;2.00;;;;;;;;;;5031715;28;20037;-82
2022/11/02 14:06:33;;;;;;;12.32;2.67;;;;;;;;;;5036564;28;20519;-83
2022/11/02 14:09:01;;;;;;;11.25;2.75;;;;;;;;;;5034848;28;20049;-82
2022/11/02 14:11:46;;;;;;;5.28;1.98;;;;;;;;;;5036527;28;20045;-82
2022/11/02 14:14:15;;;;;;;10.60;2.50;;;;;;;;;;5034592;28;20053;-82
2022/11/02 14:16:50;;;;;;;10.32;2.63;;;;;;;;;;5033287;28;20049;-85
2022/11/02 14:19:48;;;;;;;10.48;2.20;;;;;;;;;;5034943;28;20049;-87
2022/11/02 14:22:15;;;;;;;8.77;2.10;;;;;;;;;;5035006;28;20050;-82
2022/11/02 14:24:41;;;;;;;8.68;2.58;;;;;;;;;;5034978;28;20045;-83
2022/11/02 14:27:10;;;;;;;14.07;2.95;;;;;;;;;;5034272;28;20045;-80
2022/11/02 14:29:44;;;;;;;10.00;2.20;;;;;;;;;;5035472;28;20033;-81
2022/11/02 14:32:33;;;;;;;6.90;2.33;;;;;;;;;;5034464;28;20049;-80
2022/11/02 14:35:15;;;;;;;12.77;3.10;;;;;;;;;;5015092;28;20386;-82
2022/11/02 14:37:59;;;;;;;17.35;2.88;;;;;;;;;;5021407;28;20531;-81
2022/11/02 14:40:34;;;;;;;12.23;2.40;;;;;;;;;;5033521;28;20053;-81
2022/11/02 14:43:08;;;;;;;9.63;2.35;;;;;;;;;;5048830;28;20053;-82
2022/11/02 14:45:53;;;;;;;12.88;2.53;;;;;;;;;;5034266;28;20099;-83
2022/11/02 14:48:19;;;;;;;7.07;2.05;;;;;;;;;;5014757;28;20077;-82
2022/11/02 14:51:02;;;;;;;12.60;3.28;;;;;;;;;;5014536;28;20085;-83
2022/11/02 14:53:29;;;;;;;12.45;2.58;;;;;;;;;;5029731;28;20041;-82
2022/11/02 14:55:56;;;;;;;8.13;2.63;;;;;;;;;;5033968;28;20059;-83
2022/11/02 14:58:25;;;;;;;11.07;3.20;;;;;;;;;;5033887;28;20125;-82
2022/11/02 15:00:51;;;;;;;9.15;2.90;;;;;;;;;;5033914;28;20566;-82
2022/11/02 15:03:23;;;;;;;14.30;7.15;;;;;;;;;;5032963;28;20049;-83
2022/11/02 15:05:57;;;;;;;12.90;5.22;;;;;;;;;;5023696;28;20124;-83